»·PEaware :: N35CF KMFR-KRDD

N35CF :: KMFR-KRDD

FLIGHT INFORMATION

Flight Status: Arrived
Operator: Privately registered:
United States
More flights under this callsign
Pilot: Anonymous 18613 (18613)
Aircraft: BEECH AIRCRAFT A90-E90 KING AIR
(BE9L)
More flights by this aircraft type
Origin: KMFR Rogue Valley Intl-Medford
United States
Destination: KRDD Redding Mun
United States
More flights between these airports :: More routes between these airports
Route: JKSN1 OED V23 RBL
File this flight plan on PilotEdge
Remarks:
Altitude:
(Current/Filed)
12,000ft
Speed:
(Current/Filed)
215kts
Departed: 01-Aug-18 05:54 PM
Arrived: 01-Aug-18 06:53 PM
Distance/Time
Traveled:
115nm/0:59
Distance/Time
To Go:
Arrived

Flight Plot

Page will automatically refresh every two minutes.

Flight plan parsing failed; only flown route is shown


Map Options




Map Legend


Flown Route
Filed Route
Departure Airport
Arrival Airport
Navaid (VOR, NDB)
Fix

Horizontal Profiles

Position Reports

Time Latitude Longitude Heading Altitude Ground
Speed
01-Aug-18 17:29 42.374779 -122.878478 292 1336ft 0kts
01-Aug-18 17:30 42.374779 -122.878478 292 1336ft 0kts
01-Aug-18 17:31 42.374779 -122.878478 292 1336ft 0kts
01-Aug-18 17:32 42.374779 -122.878478 292 1336ft 0kts
01-Aug-18 17:33 42.374779 -122.878478 292 1336ft 0kts
01-Aug-18 17:34 42.374779 -122.878478 292 1336ft 0kts
01-Aug-18 17:35 42.374779 -122.878478 292 1336ft 0kts
01-Aug-18 17:36 42.374779 -122.878478 292 1336ft 0kts
01-Aug-18 17:37 42.374779 -122.878478 292 1336ft 0kts
01-Aug-18 17:38 42.374779 -122.878478 292 1336ft 0kts
01-Aug-18 17:39 42.374779 -122.878478 292 1336ft 0kts
01-Aug-18 17:40 42.374779 -122.878478 292 1336ft 0kts
01-Aug-18 17:41 42.374779 -122.878478 292 1336ft 0kts
01-Aug-18 17:42 42.374779 -122.878478 292 1336ft 0kts
01-Aug-18 17:43 42.374784 -122.878490 299 1336ft 1kts
01-Aug-18 17:44 42.375713 -122.878173 7 1336ft 0kts
01-Aug-18 17:45 42.375713 -122.878173 7 1336ft 0kts
01-Aug-18 17:46 42.375713 -122.878172 7 1336ft 0kts
01-Aug-18 17:47 42.375713 -122.878172 7 1336ft 0kts
01-Aug-18 17:48 42.378030 -122.876497 338 1336ft 23kts
01-Aug-18 17:49 42.384515 -122.879912 339 1336ft 24kts
01-Aug-18 17:50 42.382947 -122.879072 159 1336ft 29kts
01-Aug-18 17:51 42.373485 -122.874092 158 1336ft 40kts
01-Aug-18 17:52 42.364073 -122.869142 158 1336ft 21kts
01-Aug-18 17:53 42.363618 -122.868313 74 1336ft 9kts
01-Aug-18 17:54 42.363960 -122.867509 337 1336ft 0kts
01-Aug-18 17:55 42.374840 -122.873116 339 1337ft 125kts
01-Aug-18 17:56 42.409543 -122.892198 336 2719ft 143kts
01-Aug-18 17:57 42.447534 -122.908130 350 4230ft 148kts
01-Aug-18 17:58 42.487702 -122.914662 348 5665ft 148kts
01-Aug-18 17:59 42.528534 -122.922017 348 7028ft 149kts
01-Aug-18 18:00 42.567337 -122.935696 295 8291ft 143kts
01-Aug-18 18:01 42.541162 -122.955780 163 9497ft 152kts
01-Aug-18 18:02 42.506222 -122.923625 148 10697ft 153kts
01-Aug-18 18:03 42.467267 -122.909972 188 11822ft 144kts
01-Aug-18 18:04 42.425243 -122.926388 174 12090ft 185kts
01-Aug-18 18:05 42.373304 -122.902682 176 12095ft 206kts
01-Aug-18 18:06 42.315091 -122.896759 178 12091ft 212kts
01-Aug-18 18:07 42.255862 -122.890923 178 12091ft 214kts
01-Aug-18 18:08 42.196170 -122.885084 178 12091ft 215kts
01-Aug-18 18:09 42.136535 -122.879263 178 12090ft 215kts
01-Aug-18 18:10 42.076777 -122.873065 172 12088ft 216kts
01-Aug-18 18:11 42.017479 -122.863250 176 12104ft 215kts
01-Aug-18 18:12 41.957820 -122.856349 177 12117ft 215kts
01-Aug-18 18:13 41.898431 -122.850238 178 12117ft 215kts
01-Aug-18 18:14 41.840199 -122.844479 178 12120ft 216kts
01-Aug-18 18:15 41.780315 -122.838596 178 12119ft 216kts
01-Aug-18 18:16 41.730360 -122.833704 178 12119ft 216kts
01-Aug-18 18:17 41.660477 -122.826874 178 12119ft 216kts
01-Aug-18 18:18 41.600786 -122.821053 178 12119ft 216kts
01-Aug-18 18:19 41.550887 -122.816195 178 12119ft 216kts
01-Aug-18 18:20 41.480968 -122.809474 179 12128ft 215kts
01-Aug-18 18:21 41.431881 -122.799868 163 12129ft 218kts
01-Aug-18 18:22 41.374150 -122.774598 165 12128ft 218kts
01-Aug-18 18:23 41.317765 -122.750786 165 12128ft 218kts
01-Aug-18 18:24 41.259991 -122.726493 165 12128ft 218kts
01-Aug-18 18:25 41.202132 -122.702222 165 12127ft 218kts
01-Aug-18 18:26 41.144116 -122.677933 165 12127ft 218kts
01-Aug-18 18:27 41.086272 -122.653758 165 12107ft 219kts
01-Aug-18 18:28 41.028734 -122.629752 165 12059ft 220kts
01-Aug-18 18:29 40.970544 -122.605029 165 12012ft 220kts
01-Aug-18 18:30 40.912336 -122.579913 165 11999ft 220kts
01-Aug-18 18:31 40.856982 -122.556449 165 12001ft 219kts
01-Aug-18 18:32 40.798794 -122.531630 165 12001ft 220kts
01-Aug-18 18:33 40.740863 -122.506929 165 12001ft 220kts
01-Aug-18 18:34 40.682666 -122.482157 165 12001ft 219kts
01-Aug-18 18:35 40.624717 -122.457536 165 12001ft 219kts
01-Aug-18 18:36 40.566581 -122.432880 165 12001ft 219kts
01-Aug-18 18:37 40.566031 -122.366314 35 10734ft 250kts
01-Aug-18 18:38 40.607720 -122.298765 67 9134ft 246kts
01-Aug-18 18:39 40.635588 -122.217821 68 7570ft 242kts
01-Aug-18 18:40 40.660746 -122.144177 68 7193ft 191kts
01-Aug-18 18:41 40.681849 -122.082160 69 7201ft 189kts
01-Aug-18 18:42 40.714706 -122.033632 346 7092ft 203kts
01-Aug-18 18:43 40.744287 -122.091898 296 6527ft 199kts
01-Aug-18 18:44 40.768640 -122.156633 287 5962ft 195kts
01-Aug-18 18:45 40.782870 -122.222124 276 5799ft 177kts
01-Aug-18 18:46 40.787757 -122.284010 265 5799ft 164kts
01-Aug-18 18:47 40.750059 -122.299262 176 5079ft 177kts
01-Aug-18 18:48 40.703608 -122.294757 177 4300ft 142kts
01-Aug-18 18:49 40.671040 -122.297684 177 4105ft 124kts
01-Aug-18 18:50 40.630493 -122.295228 192 3016ft 144kts
01-Aug-18 18:51 40.594086 -122.297497 175 2240ft 140kts
01-Aug-18 18:52 40.556370 -122.294765 179 1270ft 131kts
01-Aug-18 18:53 40.521531 -122.294830 178 546ft 112kts
01-Aug-18 18:54 40.508183 -122.295628 296 506ft 0kts
01-Aug-18 18:55 40.508256 -122.295819 297 506ft 13kts

Navigation Log

Ident Type
Flight plan parsing failed, navigation log unavailable